createdAt,value
2023-03-10T00:01:24.213Z,7.92
2023-03-10T00:04:00.010Z,8.04
2023-03-10T00:06:37.517Z,8.19
2023-03-10T00:09:12.204Z,8.23
2023-03-10T00:11:46.338Z,8.33
2023-03-10T00:14:19.470Z,8.32
2023-03-10T00:16:53.847Z,8.34
2023-03-10T00:19:27.049Z,8.40
2023-03-10T00:22:00.365Z,8.49
2023-03-10T00:24:33.666Z,8.52
2023-03-10T00:27:06.859Z,8.51
2023-03-10T00:29:39.929Z,8.49
2023-03-10T00:32:14.320Z,8.49
2023-03-10T00:34:47.345Z,8.50
2023-03-10T00:37:20.607Z,8.57
2023-03-10T00:39:54.122Z,8.61
2023-03-10T00:42:27.155Z,8.72
2023-03-10T00:45:00.182Z,8.71
2023-03-10T00:47:34.950Z,8.70
2023-03-10T00:50:09.498Z,8.70
2023-03-10T00:52:42.578Z,8.72
2023-03-10T00:55:15.601Z,8.73
2023-03-10T00:57:48.620Z,8.77
2023-03-10T01:00:24.466Z,8.77
2023-03-10T01:02:59.662Z,8.78
2023-03-10T01:05:33.441Z,8.75
2023-03-10T01:08:06.939Z,8.66
2023-03-10T01:10:40.138Z,8.68
2023-03-10T01:13:14.520Z,8.72
2023-03-10T01:15:48.820Z,8.71
2023-03-10T01:18:23.611Z,8.71
2023-03-10T01:20:56.628Z,8.77
2023-03-10T01:23:30.079Z,8.82
2023-03-10T01:26:03.142Z,8.81
2023-03-10T01:28:36.266Z,8.84
2023-03-10T01:31:10.427Z,8.79
2023-03-10T01:33:45.733Z,8.66
2023-03-10T01:36:22.756Z,8.64
2023-03-10T01:38:57.764Z,8.58
2023-03-10T01:41:30.930Z,8.57
2023-03-10T01:44:04.938Z,8.50
2023-03-10T01:46:50.922Z,8.44
2023-03-10T01:49:39.822Z,8.31
2023-03-10T01:52:17.617Z,8.33
2023-03-10T01:54:55.318Z,8.32
2023-03-10T01:57:33.190Z,8.45
2023-03-10T02:00:12.234Z,8.43
2023-03-10T02:02:54.237Z,8.32
2023-03-10T02:05:30.481Z,8.35
2023-03-10T02:08:04.480Z,8.23
2023-03-10T02:10:38.158Z,8.17
2023-03-10T02:13:11.272Z,8.17
2023-03-10T02:15:44.600Z,8.13
2023-03-10T02:18:19.259Z,8.05
2023-03-10T02:21:01.470Z,8.06
2023-03-10T02:23:45.067Z,8.13
2023-03-10T02:26:36.597Z,8.35
2023-03-10T02:29:16.989Z,8.63
2023-03-10T02:31:50.674Z,8.59
2023-03-10T02:34:25.143Z,8.65
2023-03-10T02:36:58.292Z,8.82
2023-03-10T02:39:31.373Z,9.11
2023-03-10T02:42:05.762Z,9.48
2023-03-10T02:44:41.001Z,9.66
2023-03-10T02:47:14.451Z,9.88
2023-03-10T02:49:47.988Z,10.01
2023-03-10T02:52:29.541Z,10.09
2023-03-10T02:55:02.704Z,10.29
2023-03-10T02:57:35.722Z,10.32
2023-03-10T03:00:12.831Z,10.46
2023-03-10T03:02:45.873Z,10.52
2023-03-10T03:05:19.145Z,10.57
2023-03-10T03:07:52.279Z,10.65
2023-03-10T03:10:25.422Z,10.78
2023-03-10T03:12:58.554Z,10.76
2023-03-10T03:15:33.318Z,10.77
2023-03-10T03:18:06.973Z,10.74
2023-03-10T03:20:41.360Z,10.86
2023-03-10T03:23:14.686Z,10.89
2023-03-10T03:25:47.729Z,10.97
2023-03-10T03:28:21.414Z,10.94
2023-03-10T03:30:55.973Z,10.86
2023-03-10T03:33:29.092Z,10.83
2023-03-10T03:36:02.305Z,10.91
2023-03-10T03:38:35.372Z,10.95
2023-03-10T03:41:09.612Z,10.97
2023-03-10T03:43:42.926Z,10.97
2023-03-10T03:46:17.439Z,11.03
2023-03-10T03:48:50.535Z,10.95
2023-03-10T03:51:23.561Z,10.98
2023-03-10T03:53:56.634Z,10.96
2023-03-10T03:56:29.628Z,10.97
2023-03-10T03:59:02.724Z,10.90
2023-03-10T04:01:37.195Z,10.98
2023-03-10T04:04:10.385Z,10.88
2023-03-10T04:06:43.708Z,11.00
2023-03-10T04:09:18.134Z,10.91
2023-03-10T04:11:51.216Z,10.96
2023-03-10T04:14:24.295Z,11.00
2023-03-10T04:16:58.683Z,10.92
2023-03-10T04:19:32.302Z,10.84
2023-03-10T04:22:05.414Z,10.90
2023-03-10T04:24:39.590Z,11.02
2023-03-10T04:27:12.641Z,11.00
2023-03-10T04:29:45.638Z,10.90
2023-03-10T04:32:20.142Z,10.88
2023-03-10T04:34:53.569Z,10.80
2023-03-10T04:37:30.187Z,10.86
2023-03-10T04:40:08.215Z,10.78
2023-03-10T04:42:41.343Z,10.72
2023-03-10T04:45:15.130Z,10.83
2023-03-10T04:47:49.508Z,10.58
2023-03-10T04:50:22.681Z,10.52
2023-03-10T04:52:56.059Z,10.47
2023-03-10T04:55:29.159Z,10.37
2023-03-10T04:58:02.459Z,10.53
2023-03-10T05:00:35.581Z,10.41
2023-03-10T05:03:10.063Z,10.35
2023-03-10T05:05:44.050Z,10.26
2023-03-10T05:08:17.138Z,10.22
2023-03-10T05:10:50.242Z,10.23
2023-03-10T05:13:23.276Z,10.32
2023-03-10T05:15:56.364Z,10.31
2023-03-10T05:18:30.851Z,10.30
2023-03-10T05:21:03.909Z,10.21
2023-03-10T05:23:37.102Z,10.33
2023-03-10T05:26:12.395Z,10.30
2023-03-10T05:28:45.415Z,10.45
2023-03-10T05:31:26.559Z,10.49
2023-03-10T05:34:01.165Z,10.32
2023-03-10T05:36:34.286Z,10.34
2023-03-10T05:39:09.535Z,10.31
2023-03-10T05:41:42.603Z,10.38
2023-03-10T05:44:15.652Z,10.41
2023-03-10T05:46:48.806Z,10.44
2023-03-10T05:49:23.332Z,10.44
2023-03-10T05:51:56.380Z,10.41
2023-03-10T05:54:29.398Z,10.41
2023-03-10T05:57:02.450Z,10.37
2023-03-10T05:59:35.561Z,10.44
2023-03-10T06:02:08.708Z,10.57
2023-03-10T06:04:43.075Z,10.54
2023-03-10T06:07:16.144Z,10.63
2023-03-10T06:09:49.211Z,10.59
2023-03-10T06:12:22.366Z,10.56
2023-03-10T06:14:55.505Z,10.62
2023-03-10T06:17:28.536Z,10.75
2023-03-10T06:20:03.018Z,10.67
2023-03-10T06:22:36.096Z,10.72
2023-03-10T06:25:10.645Z,10.66
2023-03-10T06:27:43.720Z,10.45
2023-03-10T06:30:17.693Z,10.45
2023-03-10T06:32:50.894Z,10.35
2023-03-10T06:35:25.355Z,10.34
2023-03-10T06:37:58.430Z,10.21
2023-03-10T06:40:31.633Z,10.16
2023-03-10T06:43:04.714Z,10.26
2023-03-10T06:45:37.994Z,10.23
2023-03-10T06:48:11.877Z,10.19
2023-03-10T06:50:48.964Z,10.13
2023-03-10T06:53:23.054Z,10.06
2023-03-10T06:56:01.222Z,10.05
2023-03-10T06:58:36.296Z,10.07
2023-03-10T07:01:10.167Z,10.00
2023-03-10T07:03:43.872Z,10.09
2023-03-10T07:06:18.396Z,10.08
2023-03-10T07:08:51.845Z,10.13
2023-03-10T07:11:26.705Z,10.23
2023-03-10T07:13:59.951Z,10.48
2023-03-10T07:16:33.050Z,10.88
2023-03-10T07:19:06.061Z,11.24
2023-03-10T07:21:40.664Z,11.58
2023-03-10T07:24:13.748Z,11.69
2023-03-10T07:26:46.997Z,11.81
2023-03-10T07:29:20.032Z,11.88
2023-03-10T07:31:53.160Z,12.18
2023-03-10T07:34:26.186Z,12.43
2023-03-10T07:37:00.633Z,12.42
2023-03-10T07:39:33.674Z,12.42
2023-03-10T07:42:08.022Z,12.29
2023-03-10T07:44:41.077Z,12.17
2023-03-10T07:47:14.201Z,12.16
2023-03-10T07:49:47.410Z,12.05
2023-03-10T07:52:21.877Z,11.96
2023-03-10T07:54:54.863Z,11.88
2023-03-10T07:57:29.800Z,11.85
2023-03-10T08:00:03.016Z,11.80
2023-03-10T08:02:36.808Z,11.89
2023-03-10T08:05:11.770Z,11.86
2023-03-10T08:07:46.480Z,11.88
2023-03-10T08:10:19.929Z,11.89
2023-03-10T08:12:55.091Z,11.83
2023-03-10T08:15:28.847Z,11.80
2023-03-10T08:18:05.126Z,11.79
2023-03-10T08:20:40.726Z,11.76
2023-03-10T08:23:15.823Z,11.80
2023-03-10T08:25:49.475Z,11.84
2023-03-10T08:28:23.074Z,11.90
2023-03-10T08:31:04.166Z,12.06
2023-03-10T08:33:38.807Z,12.08
2023-03-10T08:36:15.668Z,12.03
2023-03-10T08:38:51.564Z,12.00
2023-03-10T08:41:27.562Z,12.00
2023-03-10T08:44:01.761Z,11.99
2023-03-10T08:46:35.789Z,11.98
2023-03-10T08:49:09.223Z,11.84
2023-03-10T08:51:43.207Z,11.66
2023-03-10T08:54:20.883Z,11.46
2023-03-10T08:56:54.319Z,10.87
2023-03-10T08:59:27.648Z,10.52
2023-03-10T09:02:00.755Z,10.29
2023-03-10T09:04:33.862Z,10.00
2023-03-10T09:07:06.991Z,9.89
2023-03-10T09:09:41.480Z,9.81
2023-03-10T09:12:14.528Z,9.83
2023-03-10T09:14:48.424Z,9.56
2023-03-10T09:17:21.498Z,9.56
2023-03-10T09:19:54.551Z,9.23
2023-03-10T09:22:27.625Z,9.13
2023-03-10T09:25:02.044Z,9.11
2023-03-10T09:27:35.152Z,9.15
2023-03-10T09:30:09.527Z,9.21
2023-03-10T09:32:44.854Z,9.48
2023-03-10T09:35:18.223Z,9.56
2023-03-10T09:37:51.402Z,9.58
2023-03-10T09:40:26.462Z,9.62
2023-03-10T09:43:02.430Z,9.70
2023-03-10T09:45:44.905Z,9.94
2023-03-10T09:48:37.790Z,10.22
2023-03-10T09:51:18.002Z,10.55
2023-03-10T09:53:59.929Z,10.73
2023-03-10T09:56:37.158Z,10.93
2023-03-10T09:59:16.586Z,11.09
2023-03-10T10:01:52.377Z,11.27
2023-03-10T10:04:35.075Z,11.60
2023-03-10T10:07:17.381Z,11.77
2023-03-10T10:09:56.507Z,11.85
2023-03-10T10:12:30.947Z,11.99
2023-03-10T10:15:17.880Z,11.96
2023-03-10T10:18:24.961Z,11.90
2023-03-10T10:21:01.750Z,11.83
2023-03-10T10:23:43.639Z,11.67
2023-03-10T10:26:20.301Z,11.66
2023-03-10T10:28:57.692Z,11.62
2023-03-10T10:31:34.973Z,11.73
2023-03-10T10:34:20.819Z,11.71
2023-03-10T10:36:57.102Z,11.76
2023-03-10T10:39:34.527Z,11.70
2023-03-10T10:42:20.384Z,11.47
2023-03-10T10:44:57.247Z,11.41
2023-03-10T10:47:32.917Z,11.51
2023-03-10T10:50:21.063Z,11.51
2023-03-10T10:53:21.108Z,11.45
2023-03-10T10:56:04.643Z,11.38
2023-03-10T10:58:40.785Z,11.52
2023-03-10T11:01:17.735Z,11.46
2023-03-10T11:04:06.545Z,11.55
2023-03-10T11:06:39.667Z,11.51
2023-03-10T11:09:18.604Z,11.34
2023-03-10T11:12:01.572Z,11.37
2023-03-10T11:14:49.403Z,11.38
2023-03-10T11:17:29.742Z,11.49
2023-03-10T11:20:15.393Z,11.47
2023-03-10T11:22:55.982Z,11.44
2023-03-10T11:25:37.859Z,11.48
2023-03-10T11:28:42.055Z,11.50
2023-03-10T11:31:33.351Z,11.53
2023-03-10T11:34:22.386Z,11.55
2023-03-10T11:37:06.786Z,11.63
2023-03-10T11:39:49.087Z,11.63
2023-03-10T11:42:32.459Z,11.65
2023-03-10T11:45:21.577Z,11.69
2023-03-10T11:48:07.831Z,11.77
2023-03-10T11:50:50.880Z,11.75
2023-03-10T11:53:35.675Z,11.68
2023-03-10T11:56:12.723Z,11.56
2023-03-10T11:58:51.234Z,11.51
2023-03-10T12:01:31.722Z,11.49
2023-03-10T12:04:14.871Z,11.38
2023-03-10T12:06:55.170Z,11.36
2023-03-10T12:09:40.053Z,11.26
2023-03-10T12:12:16.231Z,11.19
2023-03-10T12:14:50.201Z,11.37
2023-03-10T12:17:23.509Z,11.38
2023-03-10T12:20:25.684Z,11.39
2023-03-10T12:23:02.733Z,11.44
2023-03-10T12:25:49.517Z,11.32
2023-03-10T12:28:28.612Z,11.26
2023-03-10T12:31:04.355Z,11.21
2023-03-10T12:33:53.418Z,11.21
2023-03-10T12:36:37.188Z,11.12
2023-03-10T12:39:32.599Z,11.12
2023-03-10T12:42:14.668Z,11.15
2023-03-10T12:44:55.729Z,11.05
2023-03-10T12:47:49.633Z,11.13
2023-03-10T12:50:46.501Z,11.10
2023-03-10T12:53:32.858Z,11.01
2023-03-10T12:56:36.687Z,11.18
2023-03-10T12:59:17.294Z,11.24
2023-03-10T13:01:55.896Z,11.34
2023-03-10T13:04:29.663Z,11.31
2023-03-10T13:07:04.405Z,11.35
2023-03-10T13:09:43.722Z,11.42
2023-03-10T13:12:22.879Z,11.42
2023-03-10T13:14:59.884Z,11.50
2023-03-10T13:17:34.242Z,11.48
2023-03-10T13:20:17.329Z,11.58
2023-03-10T13:22:55.563Z,11.57
2023-03-10T13:25:28.594Z,11.46
2023-03-10T13:28:11.956Z,11.38
2023-03-10T13:30:46.815Z,11.30
2023-03-10T13:33:27.398Z,11.13
2023-03-10T13:36:00.971Z,11.11
2023-03-10T13:38:34.049Z,11.19
2023-03-10T13:41:13.195Z,11.19
2023-03-10T13:43:49.396Z,11.23
2023-03-10T13:46:27.770Z,11.20
2023-03-10T13:49:06.241Z,11.23
2023-03-10T13:51:39.754Z,11.18
2023-03-10T13:54:21.002Z,10.94
2023-03-10T13:56:57.434Z,10.76
2023-03-10T13:59:33.386Z,10.72
2023-03-10T14:02:15.318Z,10.74
2023-03-10T14:04:51.379Z,10.74
2023-03-10T14:07:27.497Z,10.56
2023-03-10T14:10:19.542Z,10.46
2023-03-10T14:12:55.177Z,10.21
2023-03-10T14:15:38.552Z,9.85
2023-03-10T14:18:19.947Z,9.76
2023-03-10T14:20:52.993Z,9.75
2023-03-10T14:23:29.246Z,9.80
2023-03-10T14:26:02.283Z,9.77
2023-03-10T14:28:35.354Z,9.75
2023-03-10T14:31:21.942Z,9.66
2023-03-10T14:33:54.993Z,9.59
2023-03-10T14:36:28.031Z,9.62
2023-03-10T14:39:01.017Z,9.64
2023-03-10T14:41:34.388Z,9.63
2023-03-10T14:44:07.669Z,9.68
2023-03-10T14:46:42.288Z,9.68
2023-03-10T14:49:17.464Z,9.70
2023-03-10T14:51:50.531Z,9.73
2023-03-10T14:54:25.899Z,9.78
2023-03-10T14:56:59.930Z,9.81
2023-03-10T14:59:32.990Z,9.84
2023-03-10T15:02:22.651Z,9.93
2023-03-10T15:04:55.772Z,9.87
2023-03-10T15:07:28.834Z,9.82
2023-03-10T15:10:11.636Z,9.66
2023-03-10T15:12:45.479Z,9.75
2023-03-10T15:15:21.989Z,9.64
2023-03-10T15:17:56.627Z,9.74
2023-03-10T15:20:29.709Z,9.70
2023-03-10T15:23:02.761Z,9.61
2023-03-10T15:25:35.919Z,9.45
2023-03-10T15:28:08.950Z,9.43
2023-03-10T15:30:42.711Z,9.33
2023-03-10T15:33:17.442Z,9.26
2023-03-10T15:35:50.872Z,9.19
2023-03-10T15:38:23.981Z,9.08
2023-03-10T15:40:57.256Z,9.11
2023-03-10T15:43:30.374Z,9.01
2023-03-10T15:46:07.836Z,9.01
2023-03-10T15:48:42.294Z,8.99
2023-03-10T15:51:18.028Z,8.95
2023-03-10T15:53:51.415Z,8.74
2023-03-10T15:56:24.489Z,8.71
2023-03-10T15:58:58.045Z,8.62
2023-03-10T16:01:31.306Z,8.55
2023-03-10T16:04:06.053Z,8.49
2023-03-10T16:06:39.129Z,8.30
2023-03-10T16:09:12.302Z,8.35
2023-03-10T16:11:45.489Z,8.32
2023-03-10T16:14:18.506Z,8.31
2023-03-10T16:16:51.627Z,8.37
2023-03-10T16:19:26.749Z,8.28
2023-03-10T16:21:59.777Z,8.33
2023-03-10T16:24:33.068Z,8.28
2023-03-10T16:27:06.488Z,8.22
2023-03-10T16:29:40.890Z,8.25
2023-03-10T16:32:14.969Z,8.29
2023-03-10T16:34:49.491Z,8.27
2023-03-10T16:37:22.527Z,8.23
2023-03-10T16:39:56.389Z,8.19
2023-03-10T16:42:35.607Z,8.24
2023-03-10T16:45:09.710Z,8.10
2023-03-10T16:47:43.966Z,7.98
2023-03-10T16:50:18.981Z,8.04
2023-03-10T16:52:56.575Z,8.04
2023-03-10T16:55:29.687Z,8.11
2023-03-10T16:58:02.808Z,8.13
2023-03-10T17:00:38.193Z,8.08
2023-03-10T17:03:11.221Z,8.12
2023-03-10T17:05:45.625Z,8.06
2023-03-10T17:08:18.646Z,7.87
2023-03-10T17:10:51.681Z,7.76
2023-03-10T17:13:24.750Z,7.71
2023-03-10T17:15:57.894Z,7.55
2023-03-10T17:18:30.927Z,7.37
2023-03-10T17:21:14.695Z,7.27
2023-03-10T17:23:48.549Z,7.14
2023-03-10T17:26:22.442Z,6.97
2023-03-10T17:28:55.706Z,6.93
2023-03-10T17:31:30.371Z,7.05
2023-03-10T17:34:07.215Z,7.01
2023-03-10T17:36:42.134Z,7.09
2023-03-10T17:39:19.825Z,6.98
2023-03-10T17:41:54.419Z,7.07
2023-03-10T17:44:27.696Z,6.98
2023-03-10T17:47:00.809Z,6.96
2023-03-10T17:49:34.117Z,7.02
2023-03-10T17:52:08.779Z,6.98
2023-03-10T17:54:41.911Z,7.07
2023-03-10T17:57:15.238Z,7.03
2023-03-10T17:59:48.272Z,7.05
2023-03-10T18:02:21.572Z,7.16
2023-03-10T18:04:54.595Z,7.11
2023-03-10T18:07:30.228Z,7.17
2023-03-10T18:10:03.915Z,7.12
2023-03-10T18:12:37.007Z,7.14
2023-03-10T18:15:11.658Z,7.17
2023-03-10T18:17:44.904Z,7.14
2023-03-10T18:20:18.099Z,7.21
2023-03-10T18:22:52.604Z,7.20
2023-03-10T18:25:25.639Z,7.14
2023-03-10T18:27:58.662Z,7.10
2023-03-10T18:30:31.708Z,7.12
2023-03-10T18:33:04.897Z,7.11
2023-03-10T18:35:39.326Z,7.05
2023-03-10T18:38:14.961Z,7.00
2023-03-10T18:40:48.099Z,6.96
2023-03-10T18:43:21.133Z,6.93
2023-03-10T18:45:54.119Z,6.89
2023-03-10T18:48:28.640Z,6.94
2023-03-10T18:51:02.153Z,6.94
2023-03-10T18:53:36.561Z,6.97
2023-03-10T18:56:10.833Z,6.84
2023-03-10T18:58:43.842Z,6.92
2023-03-10T19:01:17.171Z,6.96
2023-03-10T19:03:50.505Z,6.98
2023-03-10T19:06:23.602Z,6.94
2023-03-10T19:08:57.996Z,6.89
2023-03-10T19:11:35.390Z,6.76
2023-03-10T19:14:08.748Z,6.60
2023-03-10T19:16:42.748Z,6.37
2023-03-10T19:19:15.728Z,6.14
2023-03-10T19:21:48.780Z,6.16
2023-03-10T19:24:23.253Z,6.04
2023-03-10T19:26:56.655Z,6.00
2023-03-10T19:29:29.647Z,5.96
2023-03-10T19:32:03.006Z,5.84
2023-03-10T19:34:36.506Z,5.83
2023-03-10T19:37:09.560Z,5.79
2023-03-10T19:39:44.338Z,5.76
2023-03-10T19:42:17.458Z,5.84
2023-03-10T19:44:50.452Z,5.79
2023-03-10T19:47:23.485Z,5.79
2023-03-10T19:49:56.716Z,5.82
2023-03-10T19:52:29.878Z,5.88
2023-03-10T19:55:04.485Z,5.84
2023-03-10T19:57:37.700Z,5.92
2023-03-10T20:00:14.836Z,5.81
2023-03-10T20:02:48.031Z,5.78
2023-03-10T20:05:21.604Z,5.72
2023-03-10T20:07:54.723Z,5.74
2023-03-10T20:10:29.185Z,5.75
2023-03-10T20:13:02.367Z,5.82
2023-03-10T20:15:35.428Z,5.89
2023-03-10T20:18:08.554Z,5.94
2023-03-10T20:20:42.323Z,5.82
2023-03-10T20:23:16.171Z,5.93
2023-03-10T20:25:50.771Z,5.95
2023-03-10T20:28:23.877Z,5.84
2023-03-10T20:30:56.926Z,5.72
2023-03-10T20:33:30.369Z,5.83
2023-03-10T20:36:03.444Z,5.81
2023-03-10T20:38:36.538Z,5.78
2023-03-10T20:41:12.575Z,5.64
2023-03-10T20:43:46.234Z,5.58
2023-03-10T20:46:19.757Z,5.50
2023-03-10T20:48:52.965Z,5.50
2023-03-10T20:51:26.010Z,5.33
2023-03-10T20:53:59.092Z,5.23
2023-03-10T20:56:34.108Z,5.14
2023-03-10T20:59:07.174Z,5.13
2023-03-10T21:01:42.422Z,5.10
2023-03-10T21:04:15.605Z,5.29
2023-03-10T21:06:48.666Z,5.26
2023-03-10T21:09:21.650Z,5.16
2023-03-10T21:11:56.095Z,5.29
2023-03-10T21:14:29.160Z,5.27
2023-03-10T21:17:03.080Z,5.32
2023-03-10T21:19:36.312Z,5.24
2023-03-10T21:22:09.648Z,5.21
2023-03-10T21:24:42.690Z,5.20
2023-03-10T21:27:17.292Z,5.14
2023-03-10T21:29:50.304Z,5.13
2023-03-10T21:32:25.864Z,5.10
2023-03-10T21:34:59.809Z,5.09
2023-03-10T21:37:33.164Z,5.10
2023-03-10T21:40:09.425Z,4.99
2023-03-10T21:42:43.820Z,4.87
2023-03-10T21:45:20.462Z,4.93
2023-03-10T21:47:53.832Z,4.97
2023-03-10T21:50:27.042Z,4.91
2023-03-10T21:53:00.760Z,4.79
2023-03-10T21:55:34.461Z,4.89
2023-03-10T21:58:08.898Z,4.93
2023-03-10T22:00:42.704Z,5.01
2023-03-10T22:03:15.793Z,4.95
2023-03-10T22:05:50.486Z,4.76
2023-03-10T22:08:23.554Z,4.86
2023-03-10T22:10:56.586Z,4.79
2023-03-10T22:13:30.990Z,4.69
2023-03-10T22:16:05.783Z,4.71
2023-03-10T22:18:39.136Z,4.54
2023-03-10T22:21:12.729Z,4.42
2023-03-10T22:23:46.010Z,4.58
2023-03-10T22:26:19.069Z,4.63
2023-03-10T22:28:53.464Z,4.50
2023-03-10T22:31:26.536Z,4.46
2023-03-10T22:33:59.822Z,4.40
2023-03-10T22:36:32.849Z,4.46
2023-03-10T22:39:05.885Z,4.55
2023-03-10T22:41:39.018Z,4.55
2023-03-10T22:44:13.393Z,4.64
2023-03-10T22:46:47.161Z,4.68
2023-03-10T22:49:20.286Z,4.61
2023-03-10T22:51:53.320Z,4.66
2023-03-10T22:54:26.789Z,4.58
2023-03-10T22:57:00.058Z,4.50
2023-03-10T22:59:34.421Z,4.60
2023-03-10T23:02:07.494Z,4.43
2023-03-10T23:04:40.573Z,4.54
2023-03-10T23:07:13.638Z,4.65
2023-03-10T23:09:46.664Z,4.60
2023-03-10T23:12:19.692Z,4.50
2023-03-10T23:14:54.122Z,4.52
2023-03-10T23:17:27.565Z,4.63
2023-03-10T23:20:00.636Z,4.47
2023-03-10T23:22:33.979Z,4.44
2023-03-10T23:25:08.045Z,4.41
2023-03-10T23:27:41.374Z,4.45
2023-03-10T23:30:17.171Z,4.45
2023-03-10T23:32:51.926Z,4.34
2023-03-10T23:35:28.547Z,4.55
2023-03-10T23:38:03.073Z,4.65
2023-03-10T23:40:37.700Z,4.54
2023-03-10T23:43:10.752Z,4.50
2023-03-10T23:45:45.611Z,4.36
2023-03-10T23:48:20.373Z,4.38
2023-03-10T23:50:53.418Z,4.40
2023-03-10T23:53:28.511Z,4.51
2023-03-10T23:56:01.567Z,4.50
2023-03-10T23:58:34.734Z,4.37
